sensor_id;sensor_type;location;lat;lon;timestamp;P1;durP1;ratioP1;P2;durP2;ratioP2
8094;SDS011;4090;49.270;8.696;2023-11-19T00:01:43;1.17;;;1.08;;
8094;SDS011;4090;49.270;8.696;2023-11-19T00:04:25;1.42;;;1.30;;
8094;SDS011;4090;49.270;8.696;2023-11-19T00:07:06;1.27;;;0.98;;
8094;SDS011;4090;49.270;8.696;2023-11-19T00:09:50;1.67;;;1.42;;
8094;SDS011;4090;49.270;8.696;2023-11-19T00:12:34;2.30;;;1.55;;
8094;SDS011;4090;49.270;8.696;2023-11-19T00:15:16;1.52;;;1.40;;
8094;SDS011;4090;49.270;8.696;2023-11-19T00:17:59;1.90;;;1.42;;
8094;SDS011;4090;49.270;8.696;2023-11-19T00:20:43;1.50;;;1.40;;
8094;SDS011;4090;49.270;8.696;2023-11-19T00:23:24;2.97;;;1.30;;
8094;SDS011;4090;49.270;8.696;2023-11-19T00:26:06;1.50;;;1.40;;
8094;SDS011;4090;49.270;8.696;2023-11-19T00:28:52;1.85;;;1.35;;
8094;SDS011;4090;49.270;8.696;2023-11-19T00:31:36;1.38;;;1.27;;
8094;SDS011;4090;49.270;8.696;2023-11-19T00:34:18;1.27;;;1.15;;
8094;SDS011;4090;49.270;8.696;2023-11-19T00:37:02;1.42;;;1.20;;
8094;SDS011;4090;49.270;8.696;2023-11-19T00:39:45;2.05;;;1.38;;
8094;SDS011;4090;49.270;8.696;2023-11-19T00:42:27;1.65;;;1.20;;
8094;SDS011;4090;49.270;8.696;2023-11-19T00:45:10;1.23;;;1.13;;
8094;SDS011;4090;49.270;8.696;2023-11-19T00:47:53;1.20;;;1.10;;
8094;SDS011;4090;49.270;8.696;2023-11-19T00:50:35;1.38;;;1.23;;
8094;SDS011;4090;49.270;8.696;2023-11-19T00:53:17;1.10;;;1.00;;
8094;SDS011;4090;49.270;8.696;2023-11-19T00:55:59;1.75;;;1.20;;
8094;SDS011;4090;49.270;8.696;2023-11-19T00:58:41;1.48;;;1.15;;
8094;SDS011;4090;49.270;8.696;2023-11-19T01:01:25;2.60;;;1.10;;
8094;SDS011;4090;49.270;8.696;2023-11-19T01:04:06;1.15;;;1.00;;
8094;SDS011;4090;49.270;8.696;2023-11-19T01:06:48;1.90;;;1.30;;
8094;SDS011;4090;49.270;8.696;2023-11-19T01:09:30;1.08;;;1.08;;
8094;SDS011;4090;49.270;8.696;2023-11-19T01:12:14;1.48;;;1.38;;
8094;SDS011;4090;49.270;8.696;2023-11-19T01:14:57;1.67;;;1.02;;
8094;SDS011;4090;49.270;8.696;2023-11-19T01:17:40;2.13;;;0.95;;
8094;SDS011;4090;49.270;8.696;2023-11-19T01:20:23;1.40;;;1.30;;
8094;SDS011;4090;49.270;8.696;2023-11-19T01:23:06;1.50;;;1.27;;
8094;SDS011;4090;49.270;8.696;2023-11-19T01:25:48;1.27;;;1.00;;
8094;SDS011;4090;49.270;8.696;2023-11-19T01:28:30;1.40;;;0.90;;
8094;SDS011;4090;49.270;8.696;2023-11-19T01:31:12;1.00;;;1.00;;
8094;SDS011;4090;49.270;8.696;2023-11-19T01:33:58;1.10;;;1.05;;
8094;SDS011;4090;49.270;8.696;2023-11-19T01:36:39;0.90;;;0.90;;
8094;SDS011;4090;49.270;8.696;2023-11-19T01:39:21;0.90;;;0.88;;
8094;SDS011;4090;49.270;8.696;2023-11-19T01:42:03;0.88;;;0.88;;
8094;SDS011;4090;49.270;8.696;2023-11-19T01:44:54;0.70;;;0.70;;
8094;SDS011;4090;49.270;8.696;2023-11-19T01:47:39;0.93;;;0.80;;
8094;SDS011;4090;49.270;8.696;2023-11-19T01:50:22;1.88;;;0.75;;
8094;SDS011;4090;49.270;8.696;2023-11-19T01:53:05;0.85;;;0.80;;
8094;SDS011;4090;49.270;8.696;2023-11-19T01:55:48;1.80;;;0.88;;
8094;SDS011;4090;49.270;8.696;2023-11-19T01:58:30;1.38;;;0.65;;
8094;SDS011;4090;49.270;8.696;2023-11-19T02:01:12;0.80;;;0.80;;
8094;SDS011;4090;49.270;8.696;2023-11-19T02:03:55;1.20;;;0.75;;
8094;SDS011;4090;49.270;8.696;2023-11-19T02:06:40;0.80;;;0.80;;
8094;SDS011;4090;49.270;8.696;2023-11-19T02:09:23;1.55;;;0.57;;
8094;SDS011;4090;49.270;8.696;2023-11-19T02:12:06;1.85;;;0.75;;
8094;SDS011;4090;49.270;8.696;2023-11-19T02:14:48;0.82;;;0.77;;
8094;SDS011;4090;49.270;8.696;2023-11-19T02:17:30;3.78;;;0.70;;
8094;SDS011;4090;49.270;8.696;2023-11-19T02:20:12;1.30;;;0.75;;
8094;SDS011;4090;49.270;8.696;2023-11-19T02:22:56;0.60;;;0.60;;
8094;SDS011;4090;49.270;8.696;2023-11-19T02:25:39;0.80;;;0.80;;
8094;SDS011;4090;49.270;8.696;2023-11-19T02:28:23;0.75;;;0.75;;
8094;SDS011;4090;49.270;8.696;2023-11-19T02:31:05;0.70;;;0.70;;
8094;SDS011;4090;49.270;8.696;2023-11-19T02:33:49;0.70;;;0.70;;
8094;SDS011;4090;49.270;8.696;2023-11-19T02:36:32;0.73;;;0.73;;
8094;SDS011;4090;49.270;8.696;2023-11-19T02:39:13;0.60;;;0.60;;
8094;SDS011;4090;49.270;8.696;2023-11-19T02:42:01;2.35;;;1.00;;
8094;SDS011;4090;49.270;8.696;2023-11-19T02:44:44;0.90;;;0.90;;
8094;SDS011;4090;49.270;8.696;2023-11-19T02:47:28;1.10;;;0.98;;
8094;SDS011;4090;49.270;8.696;2023-11-19T02:50:10;2.25;;;1.13;;
8094;SDS011;4090;49.270;8.696;2023-11-19T02:52:55;1.52;;;0.98;;
8094;SDS011;4090;49.270;8.696;2023-11-19T02:55:37;1.58;;;1.30;;
8094;SDS011;4090;49.270;8.696;2023-11-19T02:58:21;1.10;;;1.10;;
8094;SDS011;4090;49.270;8.696;2023-11-19T03:01:06;1.80;;;1.02;;
8094;SDS011;4090;49.270;8.696;2023-11-19T03:03:59;1.25;;;1.02;;
8094;SDS011;4090;49.270;8.696;2023-11-19T03:06:42;1.30;;;1.20;;
8094;SDS011;4090;49.270;8.696;2023-11-19T03:09:24;1.42;;;1.27;;
8094;SDS011;4090;49.270;8.696;2023-11-19T03:12:06;1.52;;;1.30;;
8094;SDS011;4090;49.270;8.696;2023-11-19T03:14:48;2.08;;;1.50;;
8094;SDS011;4090;49.270;8.696;2023-11-19T03:17:32;1.98;;;1.38;;
8094;SDS011;4090;49.270;8.696;2023-11-19T03:20:14;1.45;;;1.35;;
8094;SDS011;4090;49.270;8.696;2023-11-19T03:22:57;2.85;;;1.40;;
8094;SDS011;4090;49.270;8.696;2023-11-19T03:25:39;1.90;;;1.40;;
8094;SDS011;4090;49.270;8.696;2023-11-19T03:28:21;3.45;;;1.52;;
8094;SDS011;4090;49.270;8.696;2023-11-19T03:31:04;1.95;;;1.63;;
8094;SDS011;4090;49.270;8.696;2023-11-19T03:33:50;3.00;;;1.40;;
8094;SDS011;4090;49.270;8.696;2023-11-19T03:36:32;1.80;;;1.50;;
8094;SDS011;4090;49.270;8.696;2023-11-19T03:39:14;4.18;;;1.60;;
8094;SDS011;4090;49.270;8.696;2023-11-19T03:41:56;1.70;;;1.30;;
8094;SDS011;4090;49.270;8.696;2023-11-19T03:44:38;3.80;;;1.50;;
8094;SDS011;4090;49.270;8.696;2023-11-19T03:47:20;2.17;;;1.45;;
8094;SDS011;4090;49.270;8.696;2023-11-19T03:50:05;1.92;;;1.40;;
8094;SDS011;4090;49.270;8.696;2023-11-19T03:52:47;2.22;;;1.20;;
8094;SDS011;4090;49.270;8.696;2023-11-19T03:55:29;1.30;;;1.20;;
8094;SDS011;4090;49.270;8.696;2023-11-19T03:58:12;2.30;;;1.30;;
8094;SDS011;4090;49.270;8.696;2023-11-19T04:00:54;1.35;;;1.25;;
8094;SDS011;4090;49.270;8.696;2023-11-19T04:03:36;1.48;;;1.10;;
8094;SDS011;4090;49.270;8.696;2023-11-19T04:06:19;1.52;;;1.10;;
8094;SDS011;4090;49.270;8.696;2023-11-19T04:09:01;2.28;;;1.10;;
8094;SDS011;4090;49.270;8.696;2023-11-19T04:11:43;1.60;;;1.08;;
8094;SDS011;4090;49.270;8.696;2023-11-19T04:14:27;0.80;;;0.80;;
8094;SDS011;4090;49.270;8.696;2023-11-19T04:17:09;2.03;;;1.00;;
8094;SDS011;4090;49.270;8.696;2023-11-19T04:19:51;0.80;;;0.80;;
8094;SDS011;4090;49.270;8.696;2023-11-19T04:22:34;2.45;;;1.10;;
8094;SDS011;4090;49.270;8.696;2023-11-19T04:25:16;2.25;;;1.00;;
8094;SDS011;4090;49.270;8.696;2023-11-19T04:27:59;1.02;;;1.02;;
8094;SDS011;4090;49.270;8.696;2023-11-19T04:30:42;1.02;;;0.93;;
8094;SDS011;4090;49.270;8.696;2023-11-19T04:33:24;1.30;;;1.20;;
8094;SDS011;4090;49.270;8.696;2023-11-19T04:36:06;1.33;;;1.23;;
8094;SDS011;4090;49.270;8.696;2023-11-19T04:38:50;2.30;;;1.48;;
8094;SDS011;4090;49.270;8.696;2023-11-19T04:41:32;1.52;;;1.42;;
8094;SDS011;4090;49.270;8.696;2023-11-19T04:44:14;2.67;;;1.23;;
8094;SDS011;4090;49.270;8.696;2023-11-19T04:46:56;1.50;;;1.40;;
8094;SDS011;4090;49.270;8.696;2023-11-19T04:49:39;2.25;;;1.50;;
8094;SDS011;4090;49.270;8.696;2023-11-19T04:52:23;2.17;;;1.30;;
8094;SDS011;4090;49.270;8.696;2023-11-19T04:55:06;1.92;;;1.70;;
8094;SDS011;4090;49.270;8.696;2023-11-19T04:57:49;1.73;;;1.40;;
8094;SDS011;4090;49.270;8.696;2023-11-19T05:00:32;1.90;;;1.48;;
8094;SDS011;4090;49.270;8.696;2023-11-19T05:03:14;2.75;;;1.77;;
8094;SDS011;4090;49.270;8.696;2023-11-19T05:05:55;1.80;;;1.48;;
8094;SDS011;4090;49.270;8.696;2023-11-19T05:08:37;1.60;;;1.50;;
8094;SDS011;4090;49.270;8.696;2023-11-19T05:11:21;1.85;;;1.52;;
8094;SDS011;4090;49.270;8.696;2023-11-19T05:14:03;2.17;;;1.70;;
8094;SDS011;4090;49.270;8.696;2023-11-19T05:16:45;2.03;;;1.80;;
8094;SDS011;4090;49.270;8.696;2023-11-19T05:19:27;5.30;;;1.52;;
8094;SDS011;4090;49.270;8.696;2023-11-19T05:22:08;2.20;;;1.83;;
8094;SDS011;4090;49.270;8.696;2023-11-19T05:24:50;2.03;;;1.45;;
8094;SDS011;4090;49.270;8.696;2023-11-19T05:27:33;1.63;;;1.50;;
8094;SDS011;4090;49.270;8.696;2023-11-19T05:30:15;2.83;;;1.50;;
8094;SDS011;4090;49.270;8.696;2023-11-19T05:32:57;1.85;;;1.50;;
8094;SDS011;4090;49.270;8.696;2023-11-19T05:35:41;2.50;;;1.80;;
8094;SDS011;4090;49.270;8.696;2023-11-19T05:38:23;3.47;;;1.40;;
8094;SDS011;4090;49.270;8.696;2023-11-19T05:41:04;2.85;;;1.60;;
8094;SDS011;4090;49.270;8.696;2023-11-19T05:43:48;2.45;;;1.40;;
8094;SDS011;4090;49.270;8.696;2023-11-19T05:46:30;2.20;;;1.70;;
8094;SDS011;4090;49.270;8.696;2023-11-19T05:49:11;1.80;;;1.70;;
8094;SDS011;4090;49.270;8.696;2023-11-19T05:51:53;2.40;;;1.50;;
8094;SDS011;4090;49.270;8.696;2023-11-19T05:54:36;2.65;;;1.40;;
8094;SDS011;4090;49.270;8.696;2023-11-19T05:57:18;2.58;;;1.50;;
8094;SDS011;4090;49.270;8.696;2023-11-19T06:00:06;1.48;;;1.30;;
8094;SDS011;4090;49.270;8.696;2023-11-19T06:02:53;1.80;;;1.40;;
8094;SDS011;4090;49.270;8.696;2023-11-19T06:05:35;2.33;;;1.27;;
8094;SDS011;4090;49.270;8.696;2023-11-19T06:08:17;2.53;;;1.30;;
8094;SDS011;4090;49.270;8.696;2023-11-19T06:11:00;1.85;;;1.38;;
8094;SDS011;4090;49.270;8.696;2023-11-19T06:13:43;1.35;;;1.20;;
8094;SDS011;4090;49.270;8.696;2023-11-19T06:16:26;2.20;;;1.35;;
8094;SDS011;4090;49.270;8.696;2023-11-19T06:19:08;1.70;;;1.13;;
8094;SDS011;4090;49.270;8.696;2023-11-19T06:21:50;1.83;;;1.10;;
8094;SDS011;4090;49.270;8.696;2023-11-19T06:24:32;1.42;;;1.27;;
8094;SDS011;4090;49.270;8.696;2023-11-19T06:27:13;0.90;;;0.90;;
8094;SDS011;4090;49.270;8.696;2023-11-19T06:29:55;3.40;;;1.13;;
8094;SDS011;4090;49.270;8.696;2023-11-19T06:32:38;2.63;;;1.20;;
8094;SDS011;4090;49.270;8.696;2023-11-19T06:35:20;1.45;;;1.20;;
8094;SDS011;4090;49.270;8.696;2023-11-19T06:38:02;1.10;;;1.00;;
8094;SDS011;4090;49.270;8.696;2023-11-19T06:40:45;2.03;;;0.80;;
8094;SDS011;4090;49.270;8.696;2023-11-19T06:43:26;1.33;;;0.90;;
8094;SDS011;4090;49.270;8.696;2023-11-19T06:46:14;1.05;;;0.75;;
8094;SDS011;4090;49.270;8.696;2023-11-19T06:48:57;1.00;;;0.77;;
8094;SDS011;4090;49.270;8.696;2023-11-19T06:51:41;1.15;;;0.80;;
8094;SDS011;4090;49.270;8.696;2023-11-19T06:54:24;0.80;;;0.75;;
8094;SDS011;4090;49.270;8.696;2023-11-19T06:57:06;3.38;;;0.70;;
8094;SDS011;4090;49.270;8.696;2023-11-19T06:59:49;1.20;;;0.65;;
8094;SDS011;4090;49.270;8.696;2023-11-19T07:02:31;0.70;;;0.70;;
8094;SDS011;4090;49.270;8.696;2023-11-19T07:05:14;0.60;;;0.60;;
8094;SDS011;4090;49.270;8.696;2023-11-19T07:07:56;0.63;;;0.63;;
8094;SDS011;4090;49.270;8.696;2023-11-19T07:10:38;1.20;;;0.80;;
8094;SDS011;4090;49.270;8.696;2023-11-19T07:13:20;0.98;;;0.52;;
8094;SDS011;4090;49.270;8.696;2023-11-19T07:16:02;2.20;;;0.77;;
8094;SDS011;4090;49.270;8.696;2023-11-19T07:18:44;0.63;;;0.60;;
8094;SDS011;4090;49.270;8.696;2023-11-19T07:21:27;1.73;;;0.70;;
8094;SDS011;4090;49.270;8.696;2023-11-19T07:24:09;1.30;;;0.80;;
8094;SDS011;4090;49.270;8.696;2023-11-19T07:26:53;0.77;;;0.65;;
8094;SDS011;4090;49.270;8.696;2023-11-19T07:29:35;1.30;;;0.60;;
8094;SDS011;4090;49.270;8.696;2023-11-19T07:32:17;1.02;;;0.75;;
8094;SDS011;4090;49.270;8.696;2023-11-19T07:34:59;1.88;;;0.80;;
8094;SDS011;4090;49.270;8.696;2023-11-19T07:37:42;0.70;;;0.70;;
8094;SDS011;4090;49.270;8.696;2023-11-19T07:40:26;1.27;;;0.93;;
8094;SDS011;4090;49.270;8.696;2023-11-19T07:43:08;1.25;;;0.60;;
8094;SDS011;4090;49.270;8.696;2023-11-19T07:45:50;1.13;;;0.80;;
8094;SDS011;4090;49.270;8.696;2023-11-19T07:48:31;0.43;;;0.43;;
8094;SDS011;4090;49.270;8.696;2023-11-19T07:51:15;0.60;;;0.60;;
8094;SDS011;4090;49.270;8.696;2023-11-19T07:53:58;0.68;;;0.60;;
8094;SDS011;4090;49.270;8.696;2023-11-19T07:56:40;0.57;;;0.50;;
8094;SDS011;4090;49.270;8.696;2023-11-19T07:59:22;1.33;;;0.80;;
8094;SDS011;4090;49.270;8.696;2023-11-19T08:02:04;1.77;;;1.00;;
8094;SDS011;4090;49.270;8.696;2023-11-19T08:04:45;0.75;;;0.75;;
8094;SDS011;4090;49.270;8.696;2023-11-19T08:07:30;1.52;;;0.70;;
8094;SDS011;4090;49.270;8.696;2023-11-19T08:10:13;1.13;;;0.77;;
8094;SDS011;4090;49.270;8.696;2023-11-19T08:12:55;0.80;;;0.80;;
8094;SDS011;4090;49.270;8.696;2023-11-19T08:15:37;1.13;;;0.60;;
8094;SDS011;4090;49.270;8.696;2023-11-19T08:18:19;2.70;;;0.95;;
8094;SDS011;4090;49.270;8.696;2023-11-19T08:21:01;1.00;;;0.90;;
8094;SDS011;4090;49.270;8.696;2023-11-19T08:23:45;1.75;;;0.80;;
8094;SDS011;4090;49.270;8.696;2023-11-19T08:26:28;1.40;;;0.70;;
8094;SDS011;4090;49.270;8.696;2023-11-19T08:29:10;0.60;;;0.60;;
8094;SDS011;4090;49.270;8.696;2023-11-19T08:31:51;2.13;;;1.00;;
8094;SDS011;4090;49.270;8.696;2023-11-19T08:34:33;4.25;;;0.90;;
8094;SDS011;4090;49.270;8.696;2023-11-19T08:37:15;2.28;;;0.60;;
8094;SDS011;4090;49.270;8.696;2023-11-19T08:39:58;0.90;;;0.90;;
8094;SDS011;4090;49.270;8.696;2023-11-19T08:42:42;2.45;;;0.85;;
8094;SDS011;4090;49.270;8.696;2023-11-19T08:45:24;1.60;;;0.77;;
8094;SDS011;4090;49.270;8.696;2023-11-19T08:48:06;0.80;;;0.80;;
8094;SDS011;4090;49.270;8.696;2023-11-19T08:50:48;0.80;;;0.80;;
8094;SDS011;4090;49.270;8.696;2023-11-19T08:53:30;0.63;;;0.63;;
8094;SDS011;4090;49.270;8.696;2023-11-19T08:56:12;2.75;;;0.95;;
8094;SDS011;4090;49.270;8.696;2023-11-19T08:58:56;2.22;;;0.80;;
8094;SDS011;4090;49.270;8.696;2023-11-19T09:01:37;2.42;;;0.85;;
8094;SDS011;4090;49.270;8.696;2023-11-19T09:04:19;0.90;;;0.80;;
8094;SDS011;4090;49.270;8.696;2023-11-19T09:07:02;0.60;;;0.60;;
8094;SDS011;4090;49.270;8.696;2023-11-19T09:09:44;2.25;;;1.55;;
8094;SDS011;4090;49.270;8.696;2023-11-19T09:12:26;2.20;;;1.00;;
8094;SDS011;4090;49.270;8.696;2023-11-19T09:15:10;0.88;;;0.88;;
8094;SDS011;4090;49.270;8.696;2023-11-19T09:17:52;0.73;;;0.70;;
8094;SDS011;4090;49.270;8.696;2023-11-19T09:20:34;4.53;;;0.95;;
8094;SDS011;4090;49.270;8.696;2023-11-19T09:23:18;0.80;;;0.80;;
8094;SDS011;4090;49.270;8.696;2023-11-19T09:26:00;1.13;;;0.93;;
8094;SDS011;4090;49.270;8.696;2023-11-19T09:28:42;0.80;;;0.77;;
8094;SDS011;4090;49.270;8.696;2023-11-19T09:31:25;1.52;;;0.98;;
8094;SDS011;4090;49.270;8.696;2023-11-19T09:34:07;1.20;;;0.70;;
8094;SDS011;4090;49.270;8.696;2023-11-19T09:36:49;0.88;;;0.80;;
8094;SDS011;4090;49.270;8.696;2023-11-19T09:39:31;1.92;;;0.85;;
8094;SDS011;4090;49.270;8.696;2023-11-19T09:42:13;1.75;;;1.17;;
8094;SDS011;4090;49.270;8.696;2023-11-19T09:44:54;0.80;;;0.80;;
8094;SDS011;4090;49.270;8.696;2023-11-19T09:47:40;2.08;;;1.02;;
8094;SDS011;4090;49.270;8.696;2023-11-19T09:50:24;1.52;;;1.10;;
8094;SDS011;4090;49.270;8.696;2023-11-19T09:53:06;1.30;;;1.20;;
8094;SDS011;4090;49.270;8.696;2023-11-19T09:55:48;0.98;;;0.85;;
8094;SDS011;4090;49.270;8.696;2023-11-19T09:58:30;3.38;;;1.23;;
8094;SDS011;4090;49.270;8.696;2023-11-19T10:01:13;0.95;;;0.90;;
8094;SDS011;4090;49.270;8.696;2023-11-19T10:03:57;1.50;;;0.93;;
8094;SDS011;4090;49.270;8.696;2023-11-19T10:06:39;1.40;;;0.90;;
8094;SDS011;4090;49.270;8.696;2023-11-19T10:09:22;0.88;;;0.88;;
8094;SDS011;4090;49.270;8.696;2023-11-19T10:12:04;1.30;;;1.20;;
8094;SDS011;4090;49.270;8.696;2023-11-19T10:14:46;2.25;;;0.95;;
8094;SDS011;4090;49.270;8.696;2023-11-19T10:17:32;1.17;;;1.05;;
8094;SDS011;4090;49.270;8.696;2023-11-19T10:20:16;1.30;;;1.20;;
8094;SDS011;4090;49.270;8.696;2023-11-19T10:22:58;2.25;;;1.10;;
8094;SDS011;4090;49.270;8.696;2023-11-19T10:25:40;2.38;;;1.20;;
8094;SDS011;4090;49.270;8.696;2023-11-19T10:28:22;1.95;;;1.20;;
8094;SDS011;4090;49.270;8.696;2023-11-19T10:31:04;1.85;;;1.10;;
8094;SDS011;4090;49.270;8.696;2023-11-19T10:33:47;1.65;;;1.10;;
8094;SDS011;4090;49.270;8.696;2023-11-19T10:36:40;1.20;;;1.00;;
8094;SDS011;4090;49.270;8.696;2023-11-19T10:39:22;2.15;;;1.05;;
8094;SDS011;4090;49.270;8.696;2023-11-19T10:42:14;1.42;;;1.05;;
8094;SDS011;4090;49.270;8.696;2023-11-19T10:44:56;2.22;;;1.10;;
8094;SDS011;4090;49.270;8.696;2023-11-19T10:47:38;1.25;;;0.90;;
8094;SDS011;4090;49.270;8.696;2023-11-19T10:50:21;1.13;;;1.02;;
8094;SDS011;4090;49.270;8.696;2023-11-19T10:53:09;1.63;;;1.20;;
8094;SDS011;4090;49.270;8.696;2023-11-19T10:55:53;2.53;;;1.13;;
8094;SDS011;4090;49.270;8.696;2023-11-19T10:58:41;2.38;;;1.38;;
8094;SDS011;4090;49.270;8.696;2023-11-19T11:01:26;2.13;;;1.23;;
8094;SDS011;4090;49.270;8.696;2023-11-19T11:04:14;0.65;;;0.65;;
8094;SDS011;4090;49.270;8.696;2023-11-19T11:07:00;2.53;;;1.20;;
8094;SDS011;4090;49.270;8.696;2023-11-19T11:09:45;1.70;;;1.10;;
8094;SDS011;4090;49.270;8.696;2023-11-19T11:12:29;1.40;;;0.80;;
8094;SDS011;4090;49.270;8.696;2023-11-19T11:15:17;1.20;;;1.10;;
8094;SDS011;4090;49.270;8.696;2023-11-19T11:18:01;3.42;;;1.10;;
8094;SDS011;4090;49.270;8.696;2023-11-19T11:20:44;3.63;;;0.98;;
8094;SDS011;4090;49.270;8.696;2023-11-19T11:23:32;0.95;;;0.90;;
8094;SDS011;4090;49.270;8.696;2023-11-19T11:26:39;1.05;;;0.95;;
8094;SDS011;4090;49.270;8.696;2023-11-19T11:29:46;1.85;;;1.00;;
8094;SDS011;4090;49.270;8.696;2023-11-19T11:32:40;1.13;;;1.00;;
8094;SDS011;4090;49.270;8.696;2023-11-19T11:35:30;1.88;;;1.00;;
8094;SDS011;4090;49.270;8.696;2023-11-19T11:38:23;2.45;;;1.00;;
8094;SDS011;4090;49.270;8.696;2023-11-19T11:41:14;1.52;;;1.10;;
8094;SDS011;4090;49.270;8.696;2023-11-19T11:44:00;1.35;;;0.90;;
8094;SDS011;4090;49.270;8.696;2023-11-19T11:46:55;2.05;;;0.95;;
8094;SDS011;4090;49.270;8.696;2023-11-19T11:49:37;1.50;;;0.95;;
8094;SDS011;4090;49.270;8.696;2023-11-19T11:52:19;4.82;;;1.10;;
8094;SDS011;4090;49.270;8.696;2023-11-19T11:55:04;2.40;;;1.20;;
8094;SDS011;4090;49.270;8.696;2023-11-19T11:57:48;1.08;;;0.82;;
8094;SDS011;4090;49.270;8.696;2023-11-19T12:00:31;1.33;;;0.88;;
8094;SDS011;4090;49.270;8.696;2023-11-19T12:03:19;3.88;;;1.00;;
8094;SDS011;4090;49.270;8.696;2023-11-19T12:06:02;2.35;;;0.95;;
8094;SDS011;4090;49.270;8.696;2023-11-19T12:08:45;2.00;;;0.80;;
8094;SDS011;4090;49.270;8.696;2023-11-19T12:11:28;1.02;;;0.93;;
8094;SDS011;4090;49.270;8.696;2023-11-19T12:14:13;2.85;;;0.90;;
8094;SDS011;4090;49.270;8.696;2023-11-19T12:16:56;1.88;;;1.13;;
8094;SDS011;4090;49.270;8.696;2023-11-19T12:19:44;1.92;;;0.80;;
8094;SDS011;4090;49.270;8.696;2023-11-19T12:22:27;0.80;;;0.80;;
8094;SDS011;4090;49.270;8.696;2023-11-19T12:25:09;3.22;;;1.10;;
8094;SDS011;4090;49.270;8.696;2023-11-19T12:27:52;1.35;;;0.90;;
8094;SDS011;4090;49.270;8.696;2023-11-19T12:30:35;1.88;;;1.08;;
8094;SDS011;4090;49.270;8.696;2023-11-19T12:33:19;4.60;;;1.05;;
8094;SDS011;4090;49.270;8.696;2023-11-19T12:36:01;3.17;;;1.13;;
8094;SDS011;4090;49.270;8.696;2023-11-19T12:38:45;1.23;;;1.08;;
8094;SDS011;4090;49.270;8.696;2023-11-19T12:41:27;1.02;;;0.70;;
8094;SDS011;4090;49.270;8.696;2023-11-19T12:44:10;1.42;;;0.90;;
8094;SDS011;4090;49.270;8.696;2023-11-19T12:46:59;3.03;;;0.95;;
8094;SDS011;4090;49.270;8.696;2023-11-19T12:49:44;2.47;;;0.90;;
8094;SDS011;4090;49.270;8.696;2023-11-19T12:52:36;3.08;;;0.85;;
8094;SDS011;4090;49.270;8.696;2023-11-19T12:55:26;1.15;;;0.90;;
8094;SDS011;4090;49.270;8.696;2023-11-19T12:58:09;1.75;;;1.20;;
8094;SDS011;4090;49.270;8.696;2023-11-19T13:00:51;1.48;;;0.88;;
8094;SDS011;4090;49.270;8.696;2023-11-19T13:03:40;3.78;;;0.80;;
8094;SDS011;4090;49.270;8.696;2023-11-19T13:06:24;3.00;;;1.30;;
8094;SDS011;4090;49.270;8.696;2023-11-19T13:09:06;1.33;;;0.85;;
8094;SDS011;4090;49.270;8.696;2023-11-19T13:11:53;1.05;;;0.90;;
8094;SDS011;4090;49.270;8.696;2023-11-19T13:14:37;2.08;;;0.80;;
8094;SDS011;4090;49.270;8.696;2023-11-19T13:17:19;0.82;;;0.77;;
8094;SDS011;4090;49.270;8.696;2023-11-19T13:20:01;1.45;;;0.88;;
8094;SDS011;4090;49.270;8.696;2023-11-19T13:22:54;1.55;;;0.88;;
8094;SDS011;4090;49.270;8.696;2023-11-19T13:25:37;2.63;;;0.95;;
8094;SDS011;4090;49.270;8.696;2023-11-19T13:28:18;3.28;;;1.10;;
8094;SDS011;4090;49.270;8.696;2023-11-19T13:31:00;3.22;;;0.90;;
8094;SDS011;4090;49.270;8.696;2023-11-19T13:33:42;5.10;;;1.30;;
8094;SDS011;4090;49.270;8.696;2023-11-19T13:36:24;0.80;;;0.80;;
8094;SDS011;4090;49.270;8.696;2023-11-19T13:39:08;2.45;;;0.73;;
8094;SDS011;4090;49.270;8.696;2023-11-19T13:41:52;4.63;;;1.23;;
8094;SDS011;4090;49.270;8.696;2023-11-19T13:44:34;3.05;;;1.00;;
8094;SDS011;4090;49.270;8.696;2023-11-19T13:47:16;2.40;;;1.05;;
8094;SDS011;4090;49.270;8.696;2023-11-19T13:49:58;2.35;;;1.10;;
8094;SDS011;4090;49.270;8.696;2023-11-19T13:52:40;1.83;;;0.90;;
8094;SDS011;4090;49.270;8.696;2023-11-19T13:55:24;2.25;;;0.80;;
8094;SDS011;4090;49.270;8.696;2023-11-19T13:58:06;1.02;;;0.90;;
8094;SDS011;4090;49.270;8.696;2023-11-19T14:00:48;2.05;;;0.88;;
8094;SDS011;4090;49.270;8.696;2023-11-19T14:03:30;3.30;;;1.05;;
8094;SDS011;4090;49.270;8.696;2023-11-19T14:06:13;1.65;;;1.05;;
8094;SDS011;4090;49.270;8.696;2023-11-19T14:08:55;2.72;;;1.10;;
8094;SDS011;4090;49.270;8.696;2023-11-19T14:11:38;1.67;;;1.00;;
8094;SDS011;4090;49.270;8.696;2023-11-19T14:14:22;2.25;;;0.85;;
8094;SDS011;4090;49.270;8.696;2023-11-19T14:17:04;1.42;;;0.80;;
8094;SDS011;4090;49.270;8.696;2023-11-19T14:19:46;2.60;;;1.00;;
8094;SDS011;4090;49.270;8.696;2023-11-19T14:22:28;1.60;;;0.90;;
8094;SDS011;4090;49.270;8.696;2023-11-19T14:25:10;1.90;;;1.13;;
8094;SDS011;4090;49.270;8.696;2023-11-19T14:27:54;4.07;;;0.95;;
8094;SDS011;4090;49.270;8.696;2023-11-19T14:30:36;2.20;;;0.93;;
8094;SDS011;4090;49.270;8.696;2023-11-19T14:33:18;2.58;;;1.05;;
8094;SDS011;4090;49.270;8.696;2023-11-19T14:36:00;2.72;;;1.33;;
8094;SDS011;4090;49.270;8.696;2023-11-19T14:38:42;2.42;;;0.93;;
8094;SDS011;4090;49.270;8.696;2023-11-19T14:41:24;1.20;;;0.93;;
8094;SDS011;4090;49.270;8.696;2023-11-19T14:44:07;2.90;;;0.90;;
8094;SDS011;4090;49.270;8.696;2023-11-19T14:46:50;2.65;;;0.82;;
8094;SDS011;4090;49.270;8.696;2023-11-19T14:49:31;0.90;;;0.75;;
8094;SDS011;4090;49.270;8.696;2023-11-19T14:52:15;2.83;;;1.08;;
8094;SDS011;4090;49.270;8.696;2023-11-19T14:54:57;3.88;;;0.90;;
8094;SDS011;4090;49.270;8.696;2023-11-19T14:57:39;2.63;;;1.15;;
8094;SDS011;4090;49.270;8.696;2023-11-19T15:00:23;2.85;;;0.80;;
8094;SDS011;4090;49.270;8.696;2023-11-19T15:03:05;1.70;;;0.90;;
8094;SDS011;4090;49.270;8.696;2023-11-19T15:05:49;2.00;;;0.80;;
8094;SDS011;4090;49.270;8.696;2023-11-19T15:08:31;1.45;;;0.90;;
8094;SDS011;4090;49.270;8.696;2023-11-19T15:11:13;3.38;;;0.98;;
8094;SDS011;4090;49.270;8.696;2023-11-19T15:13:54;1.77;;;0.93;;
8094;SDS011;4090;49.270;8.696;2023-11-19T15:16:38;1.92;;;0.85;;
8094;SDS011;4090;49.270;8.696;2023-11-19T15:19:20;2.33;;;1.13;;
8094;SDS011;4090;49.270;8.696;2023-11-19T15:22:02;3.40;;;1.00;;
8094;SDS011;4090;49.270;8.696;2023-11-19T15:24:45;3.33;;;1.10;;
8094;SDS011;4090;49.270;8.696;2023-11-19T15:27:27;1.63;;;0.90;;
8094;SDS011;4090;49.270;8.696;2023-11-19T15:30:10;4.32;;;1.42;;
8094;SDS011;4090;49.270;8.696;2023-11-19T15:32:54;2.25;;;1.20;;
8094;SDS011;4090;49.270;8.696;2023-11-19T15:35:36;2.25;;;1.00;;
8094;SDS011;4090;49.270;8.696;2023-11-19T15:38:19;5.32;;;1.08;;
8094;SDS011;4090;49.270;8.696;2023-11-19T15:41:01;1.80;;;1.23;;
8094;SDS011;4090;49.270;8.696;2023-11-19T15:43:45;3.75;;;1.23;;
8094;SDS011;4090;49.270;8.696;2023-11-19T15:46:27;1.83;;;1.20;;
8094;SDS011;4090;49.270;8.696;2023-11-19T15:49:10;2.40;;;1.20;;
8094;SDS011;4090;49.270;8.696;2023-11-19T15:51:52;2.17;;;1.08;;
8094;SDS011;4090;49.270;8.696;2023-11-19T15:54:34;4.50;;;0.93;;
8094;SDS011;4090;49.270;8.696;2023-11-19T15:57:17;3.60;;;1.00;;
8094;SDS011;4090;49.270;8.696;2023-11-19T15:59:59;3.63;;;1.30;;
8094;SDS011;4090;49.270;8.696;2023-11-19T16:02:41;2.00;;;0.90;;
8094;SDS011;4090;49.270;8.696;2023-11-19T16:05:24;4.65;;;1.55;;
8094;SDS011;4090;49.270;8.696;2023-11-19T16:08:06;3.53;;;1.33;;
8094;SDS011;4090;49.270;8.696;2023-11-19T16:10:50;2.13;;;1.02;;
8094;SDS011;4090;49.270;8.696;2023-11-19T16:13:33;1.65;;;1.10;;
8094;SDS011;4090;49.270;8.696;2023-11-19T16:16:15;2.25;;;1.15;;
8094;SDS011;4090;49.270;8.696;2023-11-19T16:18:57;2.72;;;0.98;;
8094;SDS011;4090;49.270;8.696;2023-11-19T16:21:41;4.28;;;1.00;;
8094;SDS011;4090;49.270;8.696;2023-11-19T16:24:23;1.52;;;1.00;;
8094;SDS011;4090;49.270;8.696;2023-11-19T16:27:05;1.17;;;0.77;;
8094;SDS011;4090;49.270;8.696;2023-11-19T16:29:47;6.88;;;1.23;;
8094;SDS011;4090;49.270;8.696;2023-11-19T16:32:29;1.88;;;1.15;;
8094;SDS011;4090;49.270;8.696;2023-11-19T16:35:11;3.15;;;1.20;;
8094;SDS011;4090;49.270;8.696;2023-11-19T16:37:54;1.80;;;0.85;;
8094;SDS011;4090;49.270;8.696;2023-11-19T16:40:36;2.30;;;0.90;;
8094;SDS011;4090;49.270;8.696;2023-11-19T16:43:19;1.70;;;1.15;;
8094;SDS011;4090;49.270;8.696;2023-11-19T16:46:01;2.40;;;1.08;;
8094;SDS011;4090;49.270;8.696;2023-11-19T16:48:44;3.15;;;0.98;;
8094;SDS011;4090;49.270;8.696;2023-11-19T16:51:27;2.90;;;1.10;;
8094;SDS011;4090;49.270;8.696;2023-11-19T16:54:10;4.25;;;1.23;;